Terminal Aerodrome Forecast
Issued by NWS Sioux Falls, SD

Home | Current Version | Previous Version | Graphics & Text | Print | Product List | Glossary Off
Versions: 1 2 3 4 5 6 7 8 9 10 11 12 13 14 15 16 17 18 19 20 21 22 23 24 25 26 27 28

000
FTUS43 KFSD 281136
TAFFSD
TAF
KFSD 281136Z 2812/2912 11009KT 4SM SHRA OVC006
     FM281700 13007KT P6SM OVC012
      TEMPO 2817/2820 5SM -SHRA OVC008
     FM282000 06007KT P6SM -SHRA OVC015
     FM290000 VRB05KT P6SM SCT015 BKN200
     FM290700 11005KT 5SM BR SCT005=

USA.gov is the U.S. government's official web portal to all federal, state and local government web resources and services.